Time;durP1;ratioP1;P1;durP2;ratioP2;P2;SDS_P1;SDS_P2;PMS_P1;PMS_P2;Temp;Humidity;BMP_temperature;BMP_pressure;BME280_temperature;BME280_humidity;BME280_pressure;Samples;Min_cycle;Max_cycle;Signal;HPM_P1;HPM_P2
2021/04/18 00:00:20;;;;;;;6.40;3.75;;;;;;;4.13;82.67;99427.03;5080089;28;20051;-80
2021/04/18 00:02:47;;;;;;;6.03;3.33;;;;;;;4.06;82.65;99430.25;5090250;28;20048;-80
2021/04/18 00:05:15;;;;;;;7.43;3.70;;;;;;;4.02;82.62;99414.50;5077623;28;20045;-80
2021/04/18 00:07:41;;;;;;;6.68;3.80;;;;;;;4.11;82.60;99437.91;5070854;28;20045;-80
2021/04/18 00:10:09;;;;;;;4.70;3.75;;;;;;;4.09;81.80;99412.97;5078363;28;20052;-80
2021/04/18 00:12:35;;;;;;;4.95;3.67;;;;;;;4.06;81.30;99395.28;5076875;28;20045;-80
2021/04/18 00:15:04;;;;;;;5.13;3.92;;;;;;;4.18;80.92;99422.06;5072619;28;20075;-80
2021/04/18 00:17:33;;;;;;;5.78;3.75;;;;;;;4.16;81.23;99413.28;5089792;28;20048;-80
2021/04/18 00:19:59;;;;;;;8.47;3.40;;;;;;;4.22;80.93;99412.72;5085397;28;20428;-80
2021/04/18 00:22:26;;;;;;;5.15;3.50;;;;;;;4.17;81.08;99410.47;5071585;28;20298;-80
2021/04/18 00:24:52;;;;;;;5.47;4.25;;;;;;;4.11;81.59;99410.13;5063605;28;20048;-79
2021/04/18 00:27:22;;;;;;;6.13;4.18;;;;;;;3.98;81.58;99386.19;5089807;28;20506;-79
2021/04/18 00:29:48;;;;;;;4.95;3.92;;;;;;;4.03;82.01;99394.69;5090274;28;20093;-80
2021/04/18 00:32:15;;;;;;;6.53;3.67;;;;;;;4.07;81.83;99402.34;5075064;28;20044;-80
2021/04/18 00:34:42;;;;;;;6.00;4.32;;;;;;;3.96;82.80;99393.53;5074696;28;20071;-80
2021/04/18 00:37:08;;;;;;;6.43;4.00;;;;;;;4.00;82.56;99393.13;5073392;28;20049;-80
2021/04/18 00:39:35;;;;;;;4.82;3.33;;;;;;;4.00;82.82;99398.50;5060572;28;20049;-80
2021/04/18 00:42:02;;;;;;;5.63;3.72;;;;;;;4.03;83.26;99392.00;5072237;28;20045;-80
2021/04/18 00:44:28;;;;;;;5.93;3.95;;;;;;;4.03;83.27;99392.00;5093976;28;20055;-80
2021/04/18 00:46:54;;;;;;;6.18;3.80;;;;;;;3.92;83.24;99386.75;5093814;28;20545;-80
2021/04/18 00:49:24;;;;;;;6.35;4.00;;;;;;;4.04;83.23;99391.88;5093885;28;20055;-80
2021/04/18 00:51:50;;;;;;;;;;;;;;;4.00;83.37;99392.28;5094661;28;20040;-81
2021/04/18 00:54:17;;;;;;;5.68;3.22;;;;;;;3.94;83.44;99387.44;5093358;28;19928;-81
2021/04/18 00:56:43;;;;;;;6.82;3.97;;;;;;;3.90;83.45;99385.03;5074039;28;20192;-81
2021/04/18 00:59:09;;;;;;;6.30;3.95;;;;;;;3.93;83.57;99375.84;5082515;28;20457;-80
2021/04/18 01:01:37;;;;;;;8.32;4.85;;;;;;;3.99;83.68;99385.19;5093118;28;20055;-80
2021/04/18 01:04:03;;;;;;;15.70;6.88;;;;;;;3.94;83.35;99376.69;5093612;28;20051;-80
2021/04/18 01:06:31;;;;;;;11.35;6.50;;;;;;;4.00;83.07;99386.91;5093606;28;20052;-80
2021/04/18 01:09:01;;;;;;;10.30;5.60;;;;;;;4.07;82.57;99374.59;5093526;28;20052;-79
2021/04/18 01:11:28;;;;;;;7.45;4.97;;;;;;;4.18;81.69;99366.41;5086383;28;20059;-79
2021/04/18 01:13:57;;;;;;;7.60;4.85;;;;;;;4.24;81.21;99368.53;5093637;28;20051;-79
2021/04/18 01:16:23;;;;;;;7.72;5.32;;;;;;;4.13;81.44;99376.72;5092885;28;20048;-79
2021/04/18 01:18:49;;;;;;;7.65;4.90;;;;;;;4.08;82.43;99374.47;5093386;28;20052;-79
2021/04/18 01:21:17;;;;;;;7.50;4.72;;;;;;;4.06;81.73;99373.75;5093180;28;20495;-79
2021/04/18 01:23:43;;;;;;;7.90;4.68;;;;;;;4.01;81.73;99365.22;5092514;28;20055;-80
2021/04/18 01:26:10;;;;;;;7.22;4.72;;;;;;;4.07;82.08;99362.00;5092034;28;20452;-80
2021/04/18 01:28:36;;;;;;;7.22;5.13;;;;;;;4.07;82.27;99366.53;5092430;28;20052;-80
2021/04/18 01:31:04;;;;;;;7.55;4.63;;;;;;;4.03;82.64;99365.94;5092478;28;20468;-80
2021/04/18 01:33:31;;;;;;;7.38;4.70;;;;;;;4.00;82.99;99365.38;5092203;28;20079;-80
2021/04/18 01:35:58;;;;;;;7.00;4.63;;;;;;;3.92;83.05;99360.69;5091974;28;20094;-80
2021/04/18 01:38:25;;;;;;;6.07;4.18;;;;;;;3.89;83.08;99361.81;5092488;28;20044;-80
2021/04/18 01:40:51;;;;;;;6.32;4.50;;;;;;;3.79;83.36;99349.31;5090565;28;20415;-80
2021/04/18 01:43:19;;;;;;;6.50;4.05;;;;;;;3.91;83.43;99358.97;5080081;28;20094;-80
2021/04/18 01:45:48;;;;;;;6.45;4.72;;;;;;;3.86;83.30;99353.16;5071431;28;20048;-80
2021/04/18 01:48:15;;;;;;;6.60;4.57;;;;;;;4.01;82.57;99359.00;5070762;28;20056;-80
2021/04/18 01:50:43;;;;;;;7.10;4.57;;;;;;;3.95;82.34;99348.81;5052249;28;20049;-80
2021/04/18 01:53:10;;;;;;;6.28;4.55;;;;;;;4.04;82.21;99356.03;5054922;28;20444;-80
2021/04/18 01:55:38;;;;;;;8.40;4.82;;;;;;;3.97;82.25;99355.72;5090832;28;20052;-80
2021/04/18 01:58:05;;;;;;;6.80;4.82;;;;;;;3.96;81.54;99359.44;5092274;28;20043;-80
2021/04/18 02:00:32;;;;;;;6.35;4.13;;;;;;;3.93;81.76;99357.03;5078323;28;20048;-80
2021/04/18 02:02:58;;;;;;;7.60;4.13;;;;;;;3.82;82.06;99347.19;5071558;28;20052;-80
2021/04/18 02:05:25;;;;;;;5.72;3.42;;;;;;;3.87;82.83;99350.34;5075554;28;20131;-80
2021/04/18 02:07:51;;;;;;;6.13;3.58;;;;;;;3.96;82.52;99367.50;5071345;28;20080;-80
2021/04/18 02:10:17;;;;;;;6.40;3.80;;;;;;;3.83;83.34;99358.81;5072365;28;20141;-80
2021/04/18 02:12:46;;;;;;;4.93;3.78;;;;;;;3.78;83.50;99351.16;5069857;28;20040;-80
2021/04/18 02:15:13;;;;;;;4.68;3.78;;;;;;;3.77;83.55;99354.84;5070981;28;20052;-80
2021/04/18 02:17:40;;;;;;;5.72;3.85;;;;;;;3.80;83.79;99353.72;5071120;28;20051;-80
2021/04/18 02:20:08;;;;;;;5.50;4.18;;;;;;;3.85;83.16;99352.31;5071494;28;20076;-80
2021/04/18 02:22:35;;;;;;;7.68;4.00;;;;;;;3.93;82.79;99358.84;5083429;28;20105;-80
2021/04/18 02:25:01;;;;;;;5.50;4.18;;;;;;;3.92;83.21;99362.53;5054309;28;20044;-80
2021/04/18 02:27:28;;;;;;;4.57;3.67;;;;;;;3.90;82.98;99357.28;5081240;28;20040;-80
2021/04/18 02:29:56;;;;;;;5.63;4.03;;;;;;;3.69;83.30;99344.75;5091352;28;20512;-80
2021/04/18 02:32:22;;;;;;;5.85;4.03;;;;;;;3.71;84.53;99350.00;5083117;28;20036;-80
2021/04/18 02:34:49;;;;;;;8.18;4.00;;;;;;;3.70;84.34;99343.78;5070852;28;20060;-80
2021/04/18 02:37:15;;;;;;;4.63;3.75;;;;;;;3.75;84.14;99348.75;5077227;28;20048;-80
2021/04/18 02:39:42;;;;;;;5.03;3.95;;;;;;;3.74;83.98;99344.34;5091384;28;20089;-80
2021/04/18 02:42:08;;;;;;;4.68;3.60;;;;;;;3.74;83.39;99349.72;5089444;28;20086;-80
2021/04/18 02:44:35;;;;;;;5.47;3.88;;;;;;;3.69;83.35;99343.94;5090810;28;20059;-80
2021/04/18 02:47:03;;;;;;;7.38;4.10;;;;;;;3.84;82.87;99356.00;5091183;28;20040;-80
2021/04/18 02:49:29;;;;;;;4.75;3.53;;;;;;;3.77;82.71;99343.25;5091082;28;20044;-80
2021/04/18 02:51:55;;;;;;;5.15;3.45;;;;;;;3.71;83.23;99339.25;5090849;28;20070;-80
2021/04/18 02:54:22;;;;;;;6.15;3.90;;;;;;;3.68;83.10;99334.16;5090064;28;20048;-80
2021/04/18 02:56:48;;;;;;;6.28;4.15;;;;;;;3.76;82.71;99342.38;5089825;28;20048;-80
2021/04/18 02:59:14;;;;;;;6.40;3.60;;;;;;;3.84;82.46;99349.75;5079305;28;20056;-80
2021/04/18 03:01:40;;;;;;;5.95;4.10;;;;;;;3.76;82.31;99334.31;5091079;28;20044;-80
2021/04/18 03:04:08;;;;;;;5.28;3.78;;;;;;;3.79;83.19;99346.63;5091029;28;20074;-80
2021/04/18 03:06:34;;;;;;;7.00;3.85;;;;;;;3.84;83.09;99349.75;5090893;28;20175;-80
2021/04/18 03:09:10;;;;;;;5.57;3.88;;;;;;;3.68;82.73;99340.38;5090948;28;20052;-80
2021/04/18 03:11:36;;;;;;;7.80;3.60;;;;;;;3.82;82.88;99347.19;5089359;28;20052;-80
2021/04/18 03:14:06;;;;;;;6.75;3.50;;;;;;;3.78;82.95;99347.59;5090459;28;20044;-80
2021/04/18 03:16:32;;;;;;;6.93;3.60;;;;;;;3.77;83.25;99349.47;5090077;28;20052;-80
2021/04/18 03:18:58;;;;;;;6.18;4.20;;;;;;;3.68;83.33;99343.06;5090656;28;20113;-80
2021/04/18 03:21:25;;;;;;;5.85;3.83;;;;;;;3.70;83.67;99357.22;5090249;28;20047;-80
2021/04/18 03:23:51;;;;;;;3.88;3.22;;;;;;;3.76;83.39;99345.06;5090590;28;20052;-80
2021/04/18 03:26:18;;;;;;;5.80;3.58;;;;;;;3.72;83.11;99338.28;5089878;28;20047;-80
2021/04/18 03:28:44;;;;;;;6.70;4.07;;;;;;;3.80;83.38;99349.19;5090260;28;20044;-79
2021/04/18 03:31:10;;;;;;;5.18;3.55;;;;;;;3.67;83.81;99353.94;5090499;28;20427;-79
2021/04/18 03:33:37;;;;;;;6.68;4.43;;;;;;;3.77;83.57;99351.31;5083762;28;20055;-80
2021/04/18 03:36:05;;;;;;;7.97;4.53;;;;;;;3.72;83.28;99347.19;5090143;28;20090;-80
2021/04/18 03:38:32;;;;;;;5.35;3.70;;;;;;;3.70;83.86;99354.53;5090118;28;20050;-80
2021/04/18 03:40:58;;;;;;;7.25;3.67;;;;;;;3.62;84.56;99351.66;5088614;28;20059;-80
2021/04/18 03:43:24;;;;;;;6.45;4.18;;;;;;;3.53;84.64;99342.56;5085784;28;20040;-80
2021/04/18 03:45:50;;;;;;;7.55;4.35;;;;;;;3.56;85.00;99349.53;5069612;28;20094;-80
2021/04/18 03:48:17;;;;;;;5.30;3.92;;;;;;;3.57;85.15;99353.06;5081947;28;20400;-80
2021/04/18 03:50:43;;;;;;;4.97;3.83;;;;;;;3.62;85.01;99348.13;5062976;28;20053;-80
2021/04/18 03:53:09;;;;;;;6.00;4.78;;;;;;;3.67;85.10;99345.88;5049952;28;20097;-80
2021/04/18 03:55:36;;;;;;;9.65;4.60;;;;;;;3.68;84.72;99342.22;5064745;28;20059;-80
2021/04/18 03:58:02;;;;;;;4.90;3.80;;;;;;;3.70;84.79;99340.22;5090391;28;20192;-80
2021/04/18 04:00:29;;;;;;;7.53;4.60;;;;;;;3.65;83.54;99337.94;5089630;28;20055;-80
2021/04/18 04:02:55;;;;;;;7.97;5.03;;;;;;;3.68;83.93;99340.38;5089957;28;20059;-80
2021/04/18 04:05:21;;;;;;;11.13;4.45;;;;;;;3.62;84.10;99329.31;5089201;28;20540;-80
2021/04/18 04:07:48;;;;;;;7.65;4.20;;;;;;;3.69;83.74;99336.69;5075407;28;20053;-80
2021/04/18 04:10:14;;;;;;;6.55;3.92;;;;;;;3.67;83.60;99332.44;5073994;28;20244;-80
2021/04/18 04:12:41;;;;;;;7.13;4.00;;;;;;;3.65;83.31;99329.03;5083381;28;20048;-80
2021/04/18 04:15:08;;;;;;;5.47;3.90;;;;;;;3.61;83.47;99335.69;5093642;28;20047;-80
2021/04/18 04:17:34;;;;;;;6.72;4.13;;;;;;;3.59;83.88;99346.56;5087422;28;20496;-80
2021/04/18 04:20:00;;;;;;;9.25;4.38;;;;;;;3.61;84.50;99349.13;5073722;28;20242;-80
2021/04/18 04:22:27;;;;;;;10.95;4.82;;;;;;;3.46;84.46;99337.88;5072670;28;20055;-80
2021/04/18 04:24:54;;;;;;;6.50;3.95;;;;;;;3.53;84.18;99342.56;5063806;28;20382;-80
2021/04/18 04:27:20;;;;;;;5.20;3.75;;;;;;;3.54;84.81;99338.91;5073391;28;20458;-80
2021/04/18 04:29:48;;;;;;;6.55;4.35;;;;;;;3.54;84.93;99349.66;5078492;28;20047;-80
2021/04/18 04:32:14;;;;;;;7.78;4.45;;;;;;;3.62;84.61;99350.81;5093855;28;20043;-80
2021/04/18 04:34:41;;;;;;;8.48;4.55;;;;;;;3.62;84.26;99351.66;5093308;28;20040;-80
2021/04/18 04:37:07;;;;;;;8.50;4.40;;;;;;;3.62;83.90;99345.44;5073652;28;20052;-80
2021/04/18 04:39:34;;;;;;;6.47;4.57;;;;;;;3.61;83.73;99343.75;5073389;28;20094;-80
2021/04/18 04:42:01;;;;;;;9.10;4.60;;;;;;;3.64;83.88;99351.53;5071797;28;20041;-80
2021/04/18 04:44:29;;;;;;;5.93;4.53;;;;;;;3.70;83.32;99356.38;5052814;28;20083;-80
2021/04/18 04:46:56;;;;;;;7.03;4.68;;;;;;;3.69;82.43;99352.84;5061309;28;20052;-80
2021/04/18 04:49:23;;;;;;;6.35;4.38;;;;;;;3.71;82.33;99352.69;5073228;28;20060;-80
2021/04/18 04:51:49;;;;;;;10.82;4.55;;;;;;;3.64;83.14;99348.84;5079192;28;20075;-80
2021/04/18 04:54:15;;;;;;;7.75;4.63;;;;;;;3.62;83.80;99353.53;5092772;28;20647;-80
2021/04/18 04:56:42;;;;;;;8.10;4.68;;;;;;;3.68;83.68;99356.50;5093728;28;20051;-80
2021/04/18 04:59:08;;;;;;;6.68;5.05;;;;;;;3.76;83.31;99360.34;5073249;28;20484;-80
2021/04/18 05:01:34;;;;;;;6.38;4.55;;;;;;;3.71;83.66;99376.91;5073465;28;20053;-80
2021/04/18 05:04:01;;;;;;;9.10;4.60;;;;;;;3.67;83.51;99370.06;5073327;28;20048;-80
2021/04/18 05:06:27;;;;;;;7.07;4.72;;;;;;;3.70;83.90;99368.00;5072740;28;20453;-80
2021/04/18 05:08:54;;;;;;;10.63;5.22;;;;;;;3.67;83.89;99362.00;5073338;28;20048;-80
2021/04/18 05:11:20;;;;;;;5.63;4.38;;;;;;;3.77;83.02;99362.91;5072456;28;20405;-80
2021/04/18 05:13:46;;;;;;;7.03;4.75;;;;;;;3.78;83.72;99366.44;5073339;28;20056;-80
2021/04/18 05:16:18;;;;;;;7.30;4.93;;;;;;;3.67;83.75;99362.88;5072842;28;20045;-79
2021/04/18 05:18:45;;;;;;;8.38;4.95;;;;;;;3.66;83.96;99354.97;5090011;28;20044;-80
2021/04/18 05:21:13;;;;;;;6.78;4.70;;;;;;;3.69;83.63;99373.50;5093099;28;20051;-80
2021/04/18 05:23:40;;;;;;;9.98;6.82;;;;;;;3.69;83.50;99360.06;5081011;28;20496;-80
2021/04/18 05:26:06;;;;;;;6.88;5.03;;;;;;;3.68;83.84;99374.47;5072411;28;20092;-80
2021/04/18 05:28:32;;;;;;;9.18;5.50;;;;;;;3.70;84.03;99354.53;5072908;28;20044;-80
2021/04/18 05:30:59;;;;;;;7.15;4.80;;;;;;;3.83;83.61;99369.59;5060899;28;20053;-80
2021/04/18 05:33:25;;;;;;;6.90;5.22;;;;;;;3.84;83.60;99377.50;5069467;28;20040;-80
2021/04/18 05:35:51;;;;;;;11.60;5.65;;;;;;;3.87;83.67;99360.25;5053507;28;20048;-80
2021/04/18 05:38:19;;;;;;;9.82;6.15;;;;;;;3.94;82.62;99371.31;5059029;28;20071;-80
2021/04/18 05:40:46;;;;;;;10.75;6.25;;;;;;;3.88;83.51;99357.44;5092112;28;20044;-80
2021/04/18 05:43:12;;;;;;;7.88;5.78;;;;;;;4.02;83.59;99369.63;5093645;28;20051;-80
2021/04/18 05:45:39;;;;;;;7.43;5.57;;;;;;;4.04;82.75;99372.19;5076756;28;20070;-80
2021/04/18 05:48:06;;;;;;;7.80;5.88;;;;;;;4.13;82.83;99365.97;5072431;28;20060;-80
2021/04/18 05:50:33;;;;;;;9.38;6.63;;;;;;;4.31;81.75;99381.44;5068282;28;20094;-80
2021/04/18 05:53:17;;;;;;;7.22;5.43;;;;;;;4.16;81.96;99354.09;5072454;28;20451;-80
2021/04/18 05:59:02;;;;;;;9.93;6.35;;;;;;;4.29;81.45;99362.75;5029766;28;20053;-80
2021/04/18 06:01:32;;;;;;;;;;;;;;;4.46;81.15;99381.88;5087497;28;20123;-79
2021/04/18 06:03:59;;;;;;;7.75;5.43;;;;;;;4.43;80.27;99380.31;5092284;28;19920;-79
2021/04/18 06:06:26;;;;;;;8.63;5.75;;;;;;;4.45;81.47;99385.56;5066261;28;20056;-80
2021/04/18 06:08:52;;;;;;;9.93;6.03;;;;;;;4.40;80.45;99368.00;5072773;28;20106;-80
2021/04/18 06:11:23;;;;;;;8.05;6.20;;;;;;;4.55;79.81;99381.06;5073294;28;20048;-81
2021/04/18 06:13:50;;;;;;;7.47;5.60;;;;;;;4.59;79.83;99379.75;5092303;28;20048;-80
2021/04/18 06:16:17;;;;;;;9.93;5.93;;;;;;;4.55;79.41;99381.88;5091723;28;20109;-80
2021/04/18 06:18:43;;;;;;;9.93;6.15;;;;;;;4.57;79.79;99387.13;5052222;28;20045;-80
2021/04/18 06:21:10;;;;;;;11.45;6.03;;;;;;;4.49;79.53;99373.53;5052130;28;20049;-79
2021/04/18 06:23:39;;;;;;;9.38;6.28;;;;;;;4.61;79.25;99378.63;5083969;28;20059;-80
2021/04/18 06:26:05;;;;;;;9.10;6.00;;;;;;;4.71;79.75;99384.03;5092149;28;20500;-80
2021/04/18 06:28:31;;;;;;;9.10;5.80;;;;;;;4.67;79.61;99371.84;5084649;28;20056;-80
2021/04/18 06:30:58;;;;;;;10.32;5.10;;;;;;;4.82;78.83;99388.41;5070258;28;20044;-80
2021/04/18 06:33:25;;;;;;;7.28;5.75;;;;;;;4.79;78.59;99365.31;5071836;28;20048;-80
2021/04/18 06:35:51;;;;;;;9.32;5.40;;;;;;;4.73;77.49;99383.88;5051660;28;20053;-80
2021/04/18 06:38:17;;;;;;;8.27;5.57;;;;;;;4.84;76.83;99369.41;5052340;28;20187;-80
2021/04/18 06:40:44;;;;;;;8.75;5.57;;;;;;;4.97;77.20;99386.97;5074681;28;20408;-80
2021/04/18 06:43:12;;;;;;;9.15;6.13;;;;;;;5.06;77.47;99382.56;5092227;28;20051;-80
2021/04/18 06:45:38;;;;;;;10.50;6.00;;;;;;;5.30;77.11;99378.56;5083422;28;20048;-80
2021/04/18 06:48:06;;;;;;;5.90;4.90;;;;;;;5.00;76.17;99369.69;5071699;28;20051;-80
2021/04/18 06:50:33;;;;;;;8.70;4.97;;;;;;;5.04;76.30;99367.53;5073411;28;20541;-80
2021/04/18 06:52:59;;;;;;;9.63;6.13;;;;;;;5.06;76.92;99377.19;5071902;28;20044;-80
2021/04/18 06:55:26;;;;;;;7.25;5.20;;;;;;;5.32;75.50;99384.66;5070680;28;20048;-80
2021/04/18 06:57:55;;;;;;;7.20;5.13;;;;;;;5.28;74.99;99388.63;5087682;28;20052;-80
2021/04/18 07:00:24;;;;;;;7.57;5.20;;;;;;;5.23;75.22;99370.19;5091785;28;20048;-80
2021/04/18 07:02:51;;;;;;;8.25;5.97;;;;;;;5.28;75.71;99373.31;5083316;28;20048;-80
2021/04/18 07:05:19;;;;;;;8.15;5.68;;;;;;;5.43;75.48;99389.00;5070931;28;20499;-80
2021/04/18 07:07:47;;;;;;;8.82;5.93;;;;;;;5.56;76.06;99388.72;5072193;28;20084;-80
2021/04/18 07:10:27;;;;;;;9.50;6.00;;;;;;;5.59;75.35;99381.16;5073484;28;20480;-80
2021/04/18 07:12:53;;;;;;;11.77;6.10;;;;;;;5.45;74.40;99374.41;5058997;28;20098;-80
2021/04/18 07:15:35;;;;;;;11.90;6.75;;;;;;;5.55;74.92;99387.00;5070071;28;20537;-80
2021/04/18 07:18:01;;;;;;;9.38;6.30;;;;;;;5.65;74.21;99382.41;5071951;28;20061;-80
2021/04/18 07:20:27;;;;;;;11.48;6.75;;;;;;;5.59;74.83;99366.84;5071341;28;20623;-80
2021/04/18 07:22:55;;;;;;;7.75;5.65;;;;;;;5.66;73.69;99373.31;5070884;28;20071;-80
2021/04/18 07:25:30;;;;;;;8.43;5.82;;;;;;;5.61;74.16;99359.44;5070771;28;20052;-80
2021/04/18 07:28:00;;;;;;;8.00;6.07;;;;;;;5.80;72.27;99372.84;5051707;28;20049;-80
2021/04/18 07:30:45;;;;;;;;;;;;;;;5.66;72.45;99374.19;5069346;28;20106;-80
2021/04/18 07:33:14;;;;;;;12.30;5.80;;;;;;;5.62;72.25;99372.78;5080213;28;19920;-80
2021/04/18 07:35:44;;;;;;;9.00;6.00;;;;;;;5.74;72.24;99375.28;5066257;28;20053;-80
2021/04/18 07:38:20;;;;;;;7.95;5.88;;;;;;;5.81;72.06;99379.94;5073542;28;20083;-80
2021/04/18 07:40:47;;;;;;;9.40;6.28;;;;;;;5.80;72.59;99363.91;5090225;28;20078;-80
2021/04/18 07:43:15;;;;;;;11.32;6.30;;;;;;;5.74;72.07;99376.13;5094259;28;20048;-81
2021/04/18 07:45:43;;;;;;;14.38;7.40;;;;;;;5.73;72.64;99377.13;5094901;28;20081;-80
2021/04/18 07:48:11;;;;;;;8.10;6.25;;;;;;;5.89;73.05;99371.09;5095646;28;20052;-81
2021/04/18 07:50:39;;;;;;;16.23;7.00;;;;;;;6.01;71.49;99378.00;5077962;28;20049;-80
2021/04/18 07:53:07;;;;;;;12.73;6.40;;;;;;;6.23;71.85;99380.44;5074710;28;20045;-80
2021/04/18 07:55:35;;;;;;;9.05;5.88;;;;;;;6.26;71.27;99356.69;5085647;28;20135;-81
2021/04/18 07:58:01;;;;;;;10.52;5.90;;;;;;;6.51;69.72;99371.28;5081979;28;20611;-81
2021/04/18 08:00:28;;;;;;;10.25;6.28;;;;;;;6.87;68.87;99381.25;5083216;28;20047;-81
2021/04/18 08:02:55;;;;;;;9.60;6.10;;;;;;;7.03;68.20;99386.81;5095313;28;20480;-80
2021/04/18 08:05:25;;;;;;;10.43;5.72;;;;;;;6.62;68.61;99378.31;5087911;28;20052;-80
2021/04/18 08:07:58;;;;;;;;;;;;;;;7.07;68.27;99380.06;5074465;28;20500;-80
2021/04/18 08:10:26;;;;;;;10.13;6.80;;;;;;;7.09;67.57;99364.53;5075511;28;19920;-80
2021/04/18 08:13:12;;;;;;;9.63;6.30;;;;;;;7.23;67.31;99354.16;5094321;28;20052;-80
2021/04/18 08:15:41;;;;;;;12.18;6.20;;;;;;;7.37;67.31;99379.78;5078785;28;20079;-80
2021/04/18 08:18:12;;;;;;;9.48;6.53;;;;;;;7.52;68.50;99375.47;5072492;28;20660;-80
2021/04/18 08:20:43;;;;;;;7.25;5.43;;;;;;;7.40;66.71;99353.25;5058560;28;20044;-80
2021/04/18 08:23:21;;;;;;;17.08;6.90;;;;;;;7.51;66.50;99362.97;5086676;28;20476;-82
2021/04/18 08:26:10;;;;;;;9.65;6.63;;;;;;;7.39;66.72;99380.44;5095295;28;20074;-81
2021/04/18 08:29:12;;;;;;;14.07;6.30;;;;;;;7.56;66.38;99374.16;5093376;28;20047;-80
2021/04/18 08:31:59;;;;;;;12.95;6.70;;;;;;;7.76;65.69;99372.03;5076356;28;20298;-81
2021/04/18 08:34:28;;;;;;;11.05;6.00;;;;;;;8.05;65.44;99381.63;5069210;28;20083;-80
2021/04/18 08:36:59;;;;;;;8.77;5.18;;;;;;;8.12;64.63;99366.44;5065158;28;20041;-80
2021/04/18 08:39:29;;;;;;;8.40;5.07;;;;;;;7.82;63.79;99351.59;5074585;28;20055;-80
2021/04/18 08:41:58;;;;;;;7.97;5.30;;;;;;;8.11;64.70;99366.59;5089943;28;20048;-81
2021/04/18 08:44:27;;;;;;;7.87;5.53;;;;;;;8.09;63.50;99376.75;5088767;28;20321;-81
2021/04/18 08:46:56;;;;;;;10.27;4.93;;;;;;;8.09;63.34;99363.22;5085030;28;20290;-81
2021/04/18 08:49:31;;;;;;;8.80;5.13;;;;;;;7.79;62.36;99371.72;5094088;28;20059;-80
2021/04/18 08:51:59;;;;;;;12.27;5.28;;;;;;;8.19;62.33;99360.34;5088269;28;20045;-80
2021/04/18 08:54:28;;;;;;;10.05;5.00;;;;;;;8.39;62.53;99375.31;5089149;28;20256;-81
2021/04/18 08:56:56;;;;;;;11.70;5.45;;;;;;;8.46;60.49;99370.09;5093207;28;20052;-81
2021/04/18 08:59:25;;;;;;;9.13;4.97;;;;;;;8.67;60.10;99373.22;5093907;28;20515;-81
2021/04/18 09:02:03;;;;;;;11.32;5.28;;;;;;;8.55;60.74;99370.97;5080012;28;20126;-80
2021/04/18 09:04:31;;;;;;;9.50;5.50;;;;;;;8.42;60.66;99374.16;5086553;28;20060;-80
2021/04/18 09:06:58;;;;;;;7.03;4.53;;;;;;;8.26;60.50;99380.34;5085919;28;20261;-81
2021/04/18 09:09:24;;;;;;;8.48;5.45;;;;;;;8.63;60.52;99374.53;5073383;28;20049;-80
2021/04/18 09:11:53;;;;;;;7.75;5.18;;;;;;;8.66;59.69;99374.22;5073545;28;20040;-80
2021/04/18 09:14:42;;;;;;;8.18;5.15;;;;;;;8.74;59.20;99375.25;5073160;28;20486;-81
2021/04/18 09:17:12;;;;;;;8.77;4.68;;;;;;;8.50;59.91;99357.94;5071994;28;20044;-81
2021/04/18 09:19:40;;;;;;;9.43;5.13;;;;;;;8.60;60.96;99369.47;5074890;28;20076;-81
2021/04/18 09:22:15;;;;;;;10.35;5.43;;;;;;;8.15;61.79;99366.09;5073390;28;20278;-80
2021/04/18 09:24:56;;;;;;;9.93;5.50;;;;;;;8.31;62.04;99354.47;5082786;28;20074;-80
2021/04/18 09:27:26;;;;;;;8.60;5.18;;;;;;;8.30;60.98;99346.53;5093539;28;20495;-80
2021/04/18 09:30:07;;;;;;;8.65;5.40;;;;;;;8.66;60.74;99365.25;5086690;28;20048;-81
2021/04/18 09:32:37;;;;;;;7.32;4.93;;;;;;;8.61;60.45;99360.34;5073112;28;20041;-79
2021/04/18 09:35:07;;;;;;;16.05;6.00;;;;;;;8.61;60.33;99351.34;5075809;28;20079;-80
2021/04/18 09:37:35;;;;;;;9.25;5.55;;;;;;;8.66;60.25;99368.78;5074953;28;20071;-80
2021/04/18 09:40:12;;;;;;;8.75;5.75;;;;;;;8.80;59.50;99374.56;5092307;28;20052;-79
2021/04/18 09:42:43;;;;;;;8.93;5.22;;;;;;;8.80;59.22;99359.13;5093294;28;20112;-80
2021/04/18 09:45:14;;;;;;;9.80;5.78;;;;;;;8.68;59.47;99358.63;5092683;28;20039;-80
2021/04/18 09:47:43;;;;;;;9.45;5.55;;;;;;;8.80;59.49;99361.00;5092885;28;20048;-80
2021/04/18 09:50:18;;;;;;;14.05;4.80;;;;;;;8.88;59.24;99366.41;5092217;28;20507;-80
2021/04/18 09:52:48;;;;;;;9.95;5.88;;;;;;;9.13;57.97;99371.88;5064321;28;20501;-80
2021/04/18 09:55:20;;;;;;;8.38;5.43;;;;;;;9.09;58.70;99359.66;5052956;28;20052;-80
2021/04/18 09:57:49;;;;;;;6.43;5.13;;;;;;;9.12;58.17;99352.03;5051847;28;20190;-81
2021/04/18 10:00:21;;;;;;;9.93;5.50;;;;;;;9.26;58.28;99374.91;5057743;28;20049;-81
2021/04/18 10:03:03;;;;;;;7.10;5.40;;;;;;;9.37;57.38;99369.09;5072017;28;20049;-81
2021/04/18 10:05:31;;;;;;;7.88;5.65;;;;;;;9.29;58.06;99358.28;5072864;28;20051;-81
2021/04/18 10:08:26;;;;;;;7.05;5.03;;;;;;;9.41;57.80;99371.47;5072058;28;20126;-82
2021/04/18 10:10:54;;;;;;;9.63;4.82;;;;;;;9.18;57.13;99370.34;5060763;28;20048;-80
2021/04/18 10:13:42;;;;;;;9.32;4.80;;;;;;;9.32;55.95;99362.50;5071940;28;20055;-81
2021/04/18 10:16:09;;;;;;;12.23;5.60;;;;;;;9.27;56.37;99365.72;5073221;28;20056;-81
2021/04/18 10:18:38;;;;;;;13.07;5.82;;;;;;;9.23;57.94;99360.81;5092607;28;20135;-81
2021/04/18 10:21:15;;;;;;;10.70;4.88;;;;;;;9.04;57.04;99355.56;5076618;28;20048;-80
2021/04/18 10:23:41;;;;;;;7.82;4.85;;;;;;;9.31;57.12;99360.81;5071569;28;20057;-81
2021/04/18 10:26:07;;;;;;;9.98;5.57;;;;;;;9.05;57.04;99351.03;5076172;28;20431;-81
2021/04/18 10:28:34;;;;;;;11.40;7.05;;;;;;;8.98;58.24;99355.44;5055576;28;20049;-81
2021/04/18 10:31:00;;;;;;;14.52;5.10;;;;;;;9.00;57.73;99372.38;5061415;28;20051;-81
2021/04/18 10:33:41;;;;;;;9.27;5.85;;;;;;;9.04;57.32;99379.16;5065527;28;20114;-81
2021/04/18 10:36:08;;;;;;;10.40;5.28;;;;;;;8.90;56.64;99344.56;5070207;28;20052;-80
2021/04/18 10:38:34;;;;;;;8.10;5.13;;;;;;;8.93;58.02;99364.06;5071511;28;20044;-81
2021/04/18 10:41:01;;;;;;;8.15;4.80;;;;;;;9.54;56.90;99361.81;5071170;28;20051;-81
2021/04/18 10:43:27;;;;;;;7.57;4.45;;;;;;;9.48;55.70;99361.63;5071168;28;20122;-80
2021/04/18 10:45:53;;;;;;;8.18;4.60;;;;;;;9.45;55.74;99354.69;5071748;28;20443;-80
2021/04/18 10:48:20;;;;;;;14.95;4.63;;;;;;;9.38;55.16;99354.53;5071154;28;20060;-80
2021/04/18 10:50:51;;;;;;;11.85;5.07;;;;;;;9.44;54.78;99350.28;5071709;28;20211;-80
2021/04/18 10:53:18;;;;;;;8.70;4.68;;;;;;;9.56;55.09;99364.34;5071675;28;20071;-79
2021/04/18 10:55:48;;;;;;;12.52;5.20;;;;;;;9.65;55.76;99351.56;5070826;28;20135;-80
2021/04/18 10:58:17;;;;;;;9.05;4.88;;;;;;;9.21;55.68;99345.59;5058150;28;20056;-79
2021/04/18 11:00:44;;;;;;;8.02;4.40;;;;;;;9.45;55.35;99351.13;5071865;28;20052;-80
2021/04/18 11:03:10;;;;;;;7.25;4.28;;;;;;;9.44;55.11;99350.28;5060365;28;20040;-81
2021/04/18 11:05:37;;;;;;;11.90;5.28;;;;;;;9.59;55.38;99353.13;5068743;28;20071;-80
2021/04/18 11:08:04;;;;;;;9.90;5.55;;;;;;;9.73;55.29;99340.69;5055860;28;20040;-80
2021/04/18 11:10:33;;;;;;;10.55;5.55;;;;;;;9.56;54.98;99353.47;5065425;28;20052;-80
2021/04/18 11:13:00;;;;;;;10.55;5.15;;;;;;;9.72;54.48;99347.16;5069294;28;20480;-80
2021/04/18 11:18:34;;;;;;;11.68;5.25;;;;;;;9.71;54.38;99342.72;5061349;28;20076;-81
2021/04/18 11:21:01;;;;;;;9.18;5.30;;;;;;;9.71;54.41;99345.44;5065782;28;20049;-81
2021/04/18 11:23:40;;;;;;;9.50;5.75;;;;;;;9.44;55.92;99344.88;5050946;28;20053;-80
2021/04/18 11:26:06;;;;;;;9.95;5.18;;;;;;;9.50;56.00;99346.88;5062407;28;20127;-81
2021/04/18 11:28:34;;;;;;;7.35;4.82;;;;;;;9.43;54.64;99339.59;5070826;28;20052;-81
2021/04/18 11:31:01;;;;;;;11.18;8.10;;;;;;;9.31;55.09;99348.09;5071077;28;20044;-81
2021/04/18 11:33:27;;;;;;;15.95;5.75;;;;;;;9.27;55.75;99337.75;5070918;28;20048;-81
2021/04/18 11:35:54;;;;;;;11.32;5.70;;;;;;;9.43;54.45;99331.47;5069482;28;20476;-80
2021/04/18 11:38:25;;;;;;;17.38;10.35;;;;;;;9.34;54.76;99338.78;5057094;28;20048;-81
2021/04/18 11:40:52;;;;;;;10.07;5.22;;;;;;;9.44;54.42;99339.44;5053744;28;20125;-80
2021/04/18 11:43:20;;;;;;;9.60;5.47;;;;;;;9.60;53.91;99332.25;5069884;28;20518;-80
2021/04/18 11:45:46;;;;;;;10.70;4.70;;;;;;;9.57;53.36;99331.59;5070026;28;20060;-80
2021/04/18 11:48:13;;;;;;;8.20;5.13;;;;;;;9.93;52.60;99332.97;5066630;28;20045;-80
2021/04/18 11:50:39;;;;;;;10.38;5.28;;;;;;;10.08;52.63;99328.47;5071014;28;20223;-80
2021/04/18 11:53:06;;;;;;;15.75;9.25;;;;;;;10.43;52.57;99309.97;5069474;28;20055;-80